MDT,Max TemperatureF,Mean TemperatureF,Min TemperatureF,Max Dew PointF,MeanDew PointF,Min DewpointF,Max Humidity, Mean Humidity, Min Humidity, Max Sea Level PressureIn, Mean Sea Level PressureIn, Min Sea Level PressureIn, Max VisibilityMiles, Mean VisibilityMiles, Min VisibilityMiles, Max Wind SpeedMPH, Mean Wind SpeedMPH, Max Gust SpeedMPH,PrecipitationIn, CloudCover, Events, WindDirDegrees
2013-5-1,35,30,24,34,29,21,100,93,80,30.59,30.26,30.05,10,3,0,17,10,21,0.00,8,Rain-Snow,353
2013-5-2,42,30,19,23,18,10,93,66,29,30.65,30.57,30.41,10,10,5,10,5,,0.00,4,Snow,282
2013-5-3,57,44,32,30,22,18,65,49,23,30.41,30.26,30.11,15,10,10,13,2,16,0.00,1,,337
2013-5-4,59,48,37,30,26,21,65,47,26,30.24,30.15,30.10,20,10,10,13,10,18,0.00,3,,357
2013-5-5,55,45,35,34,24,19,60,48,28,30.24,30.18,30.11,20,10,10,16,7,,0.00,4,,336
2013-5-6,64,52,41,34,30,27,70,50,24,30.12,30.04,29.95,20,12,10,14,3,16,0.00,4,,324
2013-5-7,68,57,46,45,34,27,87,51,23,30.05,29.96,29.92,10,10,10,21,5,144,0.00,4,Rain-Thunderstorm,332
2013-5-8,59,52,44,45,39,34,93,71,39,30.13,30.03,29.98,20,11,4,20,7,29,0.00,4,Rain,275
2013-5-9,57,50,44,43,40,34,93,73,44,30.23,30.16,30.10,20,13,4,17,7,23,0.00,7,Rain-Thunderstorm,325
2013-5-10,64,53,42,41,34,28,76,56,28,30.34,30.24,30.20,15,10,10,14,4,32,0.00,3,,305
2013-5-11,66,56,46,41,34,32,66,49,28,30.43,30.37,30.26,10,10,10,23,10,31,0.00,3,Rain-Thunderstorm,295
2013-5-12,77,64,50,37,30,25,54,35,14,30.28,30.23,30.16,10,10,10,12,7,17,0.00,3,,295
2013-5-13,82,71,60,37,29,25,33,23,12,30.23,30.17,30.09,20,11,10,17,9,17,0.00,3,,299
2013-5-14,84,72,60,37,31,23,34,26,11,30.09,30.05,29.99,20,10,10,28,7,40,0.00,2,Rain,236
2013-5-15,80,68,55,50,38,32,82,43,20,30.05,29.99,29.94,20,10,7,21,7,29,0.00,3,Rain-Thunderstorm,239
2013-5-16,78,64,51,48,41,28,77,53,16,30.00,29.93,29.85,10,10,10,10,5,,0.00,2,,274
2013-5-17,86,70,53,46,32,7,77,38,5,29.95,29.89,29.78,10,10,10,20,6,22,0.00,1,,286
2013-5-18,75,65,55,36,24,10,44,23,10,29.96,29.88,29.81,10,10,10,26,6,36,0.00,3,,280
2013-5-19,69,60,51,36,29,18,54,37,14,29.89,29.85,29.80,10,10,10,20,6,26,0.00,4,Rain-Thunderstorm,283
2013-5-20,64,55,46,45,37,28,82,58,32,30.05,29.94,29.87,20,10,10,14,6,21,0.00,5,Rain,48
2013-5-21,68,55,42,41,33,23,81,52,18,30.07,30.01,29.92,10,10,10,10,4,,0.00,3,,92
2013-5-22,75,60,46,48,34,28,72,48,18,30.12,29.99,29.92,20,11,10,15,4,25,0.00,2,Rain-Thunderstorm,336
2013-5-23,71,58,46,46,43,39,87,67,35,30.14,30.09,29.99,20,11,7,13,5,22,0.00,5,,41
2013-5-24,82,65,48,52,42,19,87,61,10,30.05,30.00,29.94,20,12,7,18,5,31,0.00,2,,348
2013-5-25,86,70,53,52,37,10,77,44,6,30.05,30.00,29.90,20,11,10,13,6,21,0.00,2,,306
2013-5-26,84,72,59,36,24,7,42,21,6,29.99,29.95,29.91,10,10,10,16,9,23,0.00,3,Thunderstorm,305
2013-5-27,80,68,55,36,23,10,42,23,7,29.92,29.87,29.80,20,10,10,18,5,20,0.00,2,Thunderstorm,265
2013-5-28,80,65,50,39,31,12,62,35,9,29.88,29.77,29.61,10,10,10,20,7,31,0.00,2,Thunderstorm,308
2013-5-29,64,55,46,48,41,27,93,64,26,29.75,29.71,29.64,20,9,2,26,9,38,0.00,4,Rain-Thunderstorm,334
2013-5-30,66,58,50,32,27,18,50,35,16,29.93,29.76,29.70,10,10,10,32,13,45,0.00,2,,262
2013-5-31,71,61,51,23,15,7,30,20,8,30.03,29.92,29.89,10,10,10,26,16,44,0.00,2,,272